Jump to content

leobradias

Usuários
  • Posts

    495
  • Joined

  • Last visited

Everything posted by leobradias

  1. Meteorologia em Porto Alegre mais ou menos próximo do horário da ocorrência. SPECI SBPA 201337Z 28005KT 230V330 2600 BR OVC003 11/11 Q1022= SPECI SBPA 201420Z VRB03KT 5000 BR SCT003 OVC005 13/12 Q1022=
  2. Nacional não, estadual ou municipal depende.
  3. Movimentos do Prates mês de Agosto e acumulado anual (2021): 844/5.576 Movimentos da Pampulha mês de Agosto e acumulado anual (2021): 1.639 / 12.239 Realmente o Prates está bem morto. https://transparencia.infraero.gov.br/estatisticas/
  4. Alguém sabe pq os voos da gol não estão aparecendo nas buscas do decolar.com?
  5. Comum? Tá fora da média nacional ou mundial a quantidade de acidentes por lá? Qual a estatística?
  6. No Carlos Prates são 4 escolas. Estimo a frota delas em umas 20 aeronaves. Fora as hangaradas por lá que deve dá muito mais que uma centena.
  7. É o que vão fazer com o Carlos Prates em BH. Será que vai sair um projeto semelhante na Pampulha?
  8. Ouvi num video do aerocast que o motivo de nao ampliar para 200 pax era que seria necessario mais um comissario(a) por voo. Se nao me engano, a configuracao da gol são 186 assentos.
  9. As vagas ficarão abertas até serem preenchidas (palavras do CEO), mas a realização da prova estará liberada até o dia 18, segundo anúncio da Cia.
  10. Segundo esse vídeo, não há problemas em relação à posição dos motores. (7:35).
  11. Presidente do Senado já falou que vai deixar caducar.
×
×
  • Create New...

Important Information

Saiba os termos, regras e políticas de privacidade